sensor_id;sensor_type;location;lat;lon;timestamp;P1;durP1;ratioP1;P2;durP2;ratioP2
46463;SDS011;32161;48.148;-1.554;2023-02-28T00:01:05;9.90;;;4.13;;
46463;SDS011;32161;48.148;-1.554;2023-02-28T00:03:32;9.32;;;4.20;;
46463;SDS011;32161;48.148;-1.554;2023-02-28T00:06:00;5.18;;;3.78;;
46463;SDS011;32161;48.148;-1.554;2023-02-28T00:08:29;4.90;;;4.07;;
46463;SDS011;32161;48.148;-1.554;2023-02-28T00:11:00;6.60;;;3.38;;
46463;SDS011;32161;48.148;-1.554;2023-02-28T00:13:29;5.13;;;3.78;;
46463;SDS011;32161;48.148;-1.554;2023-02-28T00:16:00;4.88;;;4.25;;
46463;SDS011;32161;48.148;-1.554;2023-02-28T00:18:30;6.88;;;3.83;;
46463;SDS011;32161;48.148;-1.554;2023-02-28T00:20:58;11.40;;;3.65;;
46463;SDS011;32161;48.148;-1.554;2023-02-28T00:23:26;10.77;;;4.18;;
46463;SDS011;32161;48.148;-1.554;2023-02-28T00:25:54;6.40;;;3.90;;
46463;SDS011;32161;48.148;-1.554;2023-02-28T00:28:22;8.23;;;4.28;;
46463;SDS011;32161;48.148;-1.554;2023-02-28T00:30:50;4.97;;;4.00;;
46463;SDS011;32161;48.148;-1.554;2023-02-28T00:33:18;3.72;;;3.42;;
46463;SDS011;32161;48.148;-1.554;2023-02-28T00:35:47;6.78;;;4.65;;
46463;SDS011;32161;48.148;-1.554;2023-02-28T00:38:14;8.40;;;4.72;;
46463;SDS011;32161;48.148;-1.554;2023-02-28T00:40:42;8.25;;;3.72;;
46463;SDS011;32161;48.148;-1.554;2023-02-28T00:43:10;8.88;;;4.10;;
46463;SDS011;32161;48.148;-1.554;2023-02-28T00:45:37;8.27;;;3.80;;
46463;SDS011;32161;48.148;-1.554;2023-02-28T00:48:05;7.43;;;3.90;;
46463;SDS011;32161;48.148;-1.554;2023-02-28T00:50:32;11.43;;;3.83;;
46463;SDS011;32161;48.148;-1.554;2023-02-28T00:53:01;5.45;;;3.65;;
46463;SDS011;32161;48.148;-1.554;2023-02-28T00:55:29;5.68;;;3.53;;
46463;SDS011;32161;48.148;-1.554;2023-02-28T00:57:56;5.55;;;3.97;;
46463;SDS011;32161;48.148;-1.554;2023-02-28T01:00:24;7.00;;;3.25;;
46463;SDS011;32161;48.148;-1.554;2023-02-28T01:02:51;7.50;;;3.95;;
46463;SDS011;32161;48.148;-1.554;2023-02-28T01:05:19;5.05;;;3.90;;
46463;SDS011;32161;48.148;-1.554;2023-02-28T01:07:47;4.78;;;4.20;;
46463;SDS011;32161;48.148;-1.554;2023-02-28T01:10:16;8.65;;;3.63;;
46463;SDS011;32161;48.148;-1.554;2023-02-28T01:12:43;5.80;;;4.05;;
46463;SDS011;32161;48.148;-1.554;2023-02-28T01:15:11;7.40;;;3.88;;
46463;SDS011;32161;48.148;-1.554;2023-02-28T01:17:39;7.28;;;3.83;;
46463;SDS011;32161;48.148;-1.554;2023-02-28T01:20:07;6.05;;;4.03;;
46463;SDS011;32161;48.148;-1.554;2023-02-28T01:22:36;7.88;;;4.22;;
46463;SDS011;32161;48.148;-1.554;2023-02-28T01:25:04;6.40;;;4.40;;
46463;SDS011;32161;48.148;-1.554;2023-02-28T01:27:34;6.63;;;3.70;;
46463;SDS011;32161;48.148;-1.554;2023-02-28T01:30:02;4.38;;;3.92;;
46463;SDS011;32161;48.148;-1.554;2023-02-28T01:32:30;7.25;;;4.05;;
46463;SDS011;32161;48.148;-1.554;2023-02-28T01:34:58;5.35;;;3.70;;
46463;SDS011;32161;48.148;-1.554;2023-02-28T01:37:25;5.32;;;4.00;;
46463;SDS011;32161;48.148;-1.554;2023-02-28T01:39:53;4.90;;;3.72;;
46463;SDS011;32161;48.148;-1.554;2023-02-28T01:42:21;7.80;;;3.88;;
46463;SDS011;32161;48.148;-1.554;2023-02-28T01:44:57;8.55;;;4.30;;
46463;SDS011;32161;48.148;-1.554;2023-02-28T01:47:30;4.88;;;4.18;;
46463;SDS011;32161;48.148;-1.554;2023-02-28T01:50:02;6.65;;;3.30;;
46463;SDS011;32161;48.148;-1.554;2023-02-28T01:52:33;4.85;;;3.88;;
46463;SDS011;32161;48.148;-1.554;2023-02-28T01:55:02;4.97;;;3.60;;
46463;SDS011;32161;48.148;-1.554;2023-02-28T01:57:34;7.85;;;3.63;;
46463;SDS011;32161;48.148;-1.554;2023-02-28T02:00:08;5.03;;;3.53;;
46463;SDS011;32161;48.148;-1.554;2023-02-28T02:02:40;5.07;;;3.67;;
46463;SDS011;32161;48.148;-1.554;2023-02-28T02:05:12;5.32;;;3.97;;
46463;SDS011;32161;48.148;-1.554;2023-02-28T02:07:45;7.97;;;5.03;;
46463;SDS011;32161;48.148;-1.554;2023-02-28T02:10:17;7.85;;;3.90;;
46463;SDS011;32161;48.148;-1.554;2023-02-28T02:16:11;6.35;;;4.13;;
46463;SDS011;32161;48.148;-1.554;2023-02-28T02:18:52;6.38;;;3.78;;
46463;SDS011;32161;48.148;-1.554;2023-02-28T02:21:32;6.82;;;3.80;;
46463;SDS011;32161;48.148;-1.554;2023-02-28T02:24:49;5.25;;;3.50;;
46463;SDS011;32161;48.148;-1.554;2023-02-28T02:27:56;5.75;;;4.40;;
46463;SDS011;32161;48.148;-1.554;2023-02-28T02:31:04;6.80;;;4.00;;
46463;SDS011;32161;48.148;-1.554;2023-02-28T02:34:09;5.90;;;4.07;;
46463;SDS011;32161;48.148;-1.554;2023-02-28T02:37:09;6.22;;;3.80;;
46463;SDS011;32161;48.148;-1.554;2023-02-28T02:39:48;7.55;;;4.40;;
46463;SDS011;32161;48.148;-1.554;2023-02-28T02:42:21;5.13;;;3.97;;
46463;SDS011;32161;48.148;-1.554;2023-02-28T02:45:00;5.70;;;4.05;;
46463;SDS011;32161;48.148;-1.554;2023-02-28T02:47:33;4.97;;;4.40;;
46463;SDS011;32161;48.148;-1.554;2023-02-28T02:50:06;8.27;;;4.63;;
46463;SDS011;32161;48.148;-1.554;2023-02-28T02:52:41;5.25;;;4.85;;
46463;SDS011;32161;48.148;-1.554;2023-02-28T02:55:12;4.43;;;4.03;;
46463;SDS011;32161;48.148;-1.554;2023-02-28T02:57:43;5.07;;;4.57;;
46463;SDS011;32161;48.148;-1.554;2023-02-28T03:00:17;6.25;;;4.53;;
46463;SDS011;32161;48.148;-1.554;2023-02-28T03:02:49;6.53;;;4.40;;
46463;SDS011;32161;48.148;-1.554;2023-02-28T03:05:23;10.45;;;4.35;;
46463;SDS011;32161;48.148;-1.554;2023-02-28T03:07:56;6.32;;;4.93;;
46463;SDS011;32161;48.148;-1.554;2023-02-28T03:10:31;7.95;;;5.47;;
46463;SDS011;32161;48.148;-1.554;2023-02-28T03:13:10;10.97;;;5.27;;
46463;SDS011;32161;48.148;-1.554;2023-02-28T03:16:09;11.05;;;4.65;;
46463;SDS011;32161;48.148;-1.554;2023-02-28T03:19:02;5.40;;;4.90;;
46463;SDS011;32161;48.148;-1.554;2023-02-28T03:21:59;7.93;;;5.13;;
46463;SDS011;32161;48.148;-1.554;2023-02-28T03:24:42;7.63;;;4.45;;
46463;SDS011;32161;48.148;-1.554;2023-02-28T03:27:17;6.32;;;5.28;;
46463;SDS011;32161;48.148;-1.554;2023-02-28T03:29:51;7.18;;;5.07;;
46463;SDS011;32161;48.148;-1.554;2023-02-28T03:32:28;6.05;;;4.55;;
46463;SDS011;32161;48.148;-1.554;2023-02-28T03:35:02;6.60;;;5.03;;
46463;SDS011;32161;48.148;-1.554;2023-02-28T03:37:37;6.95;;;4.95;;
46463;SDS011;32161;48.148;-1.554;2023-02-28T03:40:10;6.32;;;4.38;;
46463;SDS011;32161;48.148;-1.554;2023-02-28T03:42:43;8.27;;;5.22;;
46463;SDS011;32161;48.148;-1.554;2023-02-28T03:45:15;5.22;;;4.72;;
46463;SDS011;32161;48.148;-1.554;2023-02-28T03:47:49;8.85;;;4.30;;
46463;SDS011;32161;48.148;-1.554;2023-02-28T03:50:25;6.32;;;4.53;;
46463;SDS011;32161;48.148;-1.554;2023-02-28T03:53:01;9.20;;;5.47;;
46463;SDS011;32161;48.148;-1.554;2023-02-28T03:55:36;9.70;;;5.28;;
46463;SDS011;32161;48.148;-1.554;2023-02-28T03:58:11;5.85;;;5.35;;
46463;SDS011;32161;48.148;-1.554;2023-02-28T04:00:47;6.25;;;5.10;;
46463;SDS011;32161;48.148;-1.554;2023-02-28T04:03:21;5.50;;;4.93;;
46463;SDS011;32161;48.148;-1.554;2023-02-28T04:05:50;7.45;;;5.15;;
46463;SDS011;32161;48.148;-1.554;2023-02-28T04:08:21;7.75;;;5.20;;
46463;SDS011;32161;48.148;-1.554;2023-02-28T04:10:50;8.77;;;5.63;;
46463;SDS011;32161;48.148;-1.554;2023-02-28T04:13:24;11.82;;;6.28;;
46463;SDS011;32161;48.148;-1.554;2023-02-28T04:15:51;11.73;;;5.80;;
46463;SDS011;32161;48.148;-1.554;2023-02-28T04:18:19;8.40;;;5.10;;
46463;SDS011;32161;48.148;-1.554;2023-02-28T04:20:46;5.43;;;4.93;;
46463;SDS011;32161;48.148;-1.554;2023-02-28T04:23:14;9.82;;;6.50;;
46463;SDS011;32161;48.148;-1.554;2023-02-28T04:25:43;13.75;;;5.97;;
46463;SDS011;32161;48.148;-1.554;2023-02-28T04:28:10;8.23;;;6.00;;
46463;SDS011;32161;48.148;-1.554;2023-02-28T04:30:38;6.68;;;5.75;;
46463;SDS011;32161;48.148;-1.554;2023-02-28T04:33:05;7.32;;;6.05;;
46463;SDS011;32161;48.148;-1.554;2023-02-28T04:35:33;7.78;;;5.68;;
46463;SDS011;32161;48.148;-1.554;2023-02-28T04:38:00;7.03;;;5.95;;
46463;SDS011;32161;48.148;-1.554;2023-02-28T04:40:28;14.82;;;6.65;;
46463;SDS011;32161;48.148;-1.554;2023-02-28T04:42:57;7.50;;;6.40;;
46463;SDS011;32161;48.148;-1.554;2023-02-28T04:45:25;8.90;;;6.70;;
46463;SDS011;32161;48.148;-1.554;2023-02-28T04:47:55;13.98;;;6.57;;
46463;SDS011;32161;48.148;-1.554;2023-02-28T04:50:22;7.80;;;5.78;;
46463;SDS011;32161;48.148;-1.554;2023-02-28T04:52:50;8.35;;;6.57;;
46463;SDS011;32161;48.148;-1.554;2023-02-28T04:55:17;7.13;;;6.32;;
46463;SDS011;32161;48.148;-1.554;2023-02-28T04:57:45;8.20;;;5.28;;
46463;SDS011;32161;48.148;-1.554;2023-02-28T05:00:15;9.38;;;6.70;;
46463;SDS011;32161;48.148;-1.554;2023-02-28T05:02:43;9.55;;;6.55;;
46463;SDS011;32161;48.148;-1.554;2023-02-28T05:05:11;7.28;;;5.78;;
46463;SDS011;32161;48.148;-1.554;2023-02-28T05:07:43;9.35;;;6.03;;
46463;SDS011;32161;48.148;-1.554;2023-02-28T05:10:11;11.18;;;6.32;;
46463;SDS011;32161;48.148;-1.554;2023-02-28T05:12:39;7.70;;;6.65;;
46463;SDS011;32161;48.148;-1.554;2023-02-28T05:15:07;9.68;;;7.57;;
46463;SDS011;32161;48.148;-1.554;2023-02-28T05:17:40;13.45;;;6.75;;
46463;SDS011;32161;48.148;-1.554;2023-02-28T05:20:09;7.75;;;6.35;;
46463;SDS011;32161;48.148;-1.554;2023-02-28T05:22:39;9.15;;;6.70;;
46463;SDS011;32161;48.148;-1.554;2023-02-28T05:25:08;9.93;;;6.43;;
46463;SDS011;32161;48.148;-1.554;2023-02-28T05:27:40;8.40;;;6.32;;
46463;SDS011;32161;48.148;-1.554;2023-02-28T05:30:08;9.68;;;7.03;;
46463;SDS011;32161;48.148;-1.554;2023-02-28T05:32:37;9.27;;;7.05;;
46463;SDS011;32161;48.148;-1.554;2023-02-28T05:35:09;10.70;;;6.88;;
46463;SDS011;32161;48.148;-1.554;2023-02-28T05:37:37;11.90;;;7.18;;
46463;SDS011;32161;48.148;-1.554;2023-02-28T05:40:06;8.20;;;6.97;;
46463;SDS011;32161;48.148;-1.554;2023-02-28T05:42:36;11.20;;;7.07;;
46463;SDS011;32161;48.148;-1.554;2023-02-28T05:45:04;10.45;;;6.88;;
46463;SDS011;32161;48.148;-1.554;2023-02-28T05:47:33;12.52;;;7.18;;
46463;SDS011;32161;48.148;-1.554;2023-02-28T05:50:01;7.35;;;6.55;;
46463;SDS011;32161;48.148;-1.554;2023-02-28T05:52:31;10.50;;;7.55;;
46463;SDS011;32161;48.148;-1.554;2023-02-28T05:54:59;12.23;;;7.07;;
46463;SDS011;32161;48.148;-1.554;2023-02-28T05:57:26;10.43;;;7.00;;
46463;SDS011;32161;48.148;-1.554;2023-02-28T05:59:54;8.98;;;7.15;;
46463;SDS011;32161;48.148;-1.554;2023-02-28T06:02:21;12.55;;;7.75;;
46463;SDS011;32161;48.148;-1.554;2023-02-28T06:04:49;9.00;;;7.60;;
46463;SDS011;32161;48.148;-1.554;2023-02-28T06:07:16;8.88;;;7.88;;
46463;SDS011;32161;48.148;-1.554;2023-02-28T06:09:45;9.40;;;7.28;;
46463;SDS011;32161;48.148;-1.554;2023-02-28T06:12:13;10.18;;;8.00;;
46463;SDS011;32161;48.148;-1.554;2023-02-28T06:14:41;11.00;;;7.53;;
46463;SDS011;32161;48.148;-1.554;2023-02-28T06:17:08;8.50;;;7.70;;
46463;SDS011;32161;48.148;-1.554;2023-02-28T06:19:36;9.00;;;7.07;;
46463;SDS011;32161;48.148;-1.554;2023-02-28T06:22:06;10.07;;;7.93;;
46463;SDS011;32161;48.148;-1.554;2023-02-28T06:24:33;10.45;;;8.35;;
46463;SDS011;32161;48.148;-1.554;2023-02-28T06:27:02;11.27;;;8.35;;
46463;SDS011;32161;48.148;-1.554;2023-02-28T06:29:31;10.18;;;8.32;;
46463;SDS011;32161;48.148;-1.554;2023-02-28T06:31:59;13.07;;;7.97;;
46463;SDS011;32161;48.148;-1.554;2023-02-28T06:34:27;14.93;;;8.07;;
46463;SDS011;32161;48.148;-1.554;2023-02-28T06:36:54;11.43;;;8.23;;
46463;SDS011;32161;48.148;-1.554;2023-02-28T06:39:22;10.63;;;8.52;;
46463;SDS011;32161;48.148;-1.554;2023-02-28T06:41:49;10.80;;;8.07;;
46463;SDS011;32161;48.148;-1.554;2023-02-28T06:44:19;11.10;;;8.98;;
46463;SDS011;32161;48.148;-1.554;2023-02-28T06:46:48;9.13;;;7.90;;
46463;SDS011;32161;48.148;-1.554;2023-02-28T06:49:15;12.10;;;9.65;;
46463;SDS011;32161;48.148;-1.554;2023-02-28T06:51:44;12.32;;;9.77;;
46463;SDS011;32161;48.148;-1.554;2023-02-28T06:54:12;11.93;;;8.68;;
46463;SDS011;32161;48.148;-1.554;2023-02-28T06:56:40;20.25;;;9.65;;
46463;SDS011;32161;48.148;-1.554;2023-02-28T06:59:07;12.40;;;9.68;;
46463;SDS011;32161;48.148;-1.554;2023-02-28T07:01:36;14.07;;;10.85;;
46463;SDS011;32161;48.148;-1.554;2023-02-28T07:04:04;17.75;;;10.00;;
46463;SDS011;32161;48.148;-1.554;2023-02-28T07:06:32;19.08;;;10.88;;
46463;SDS011;32161;48.148;-1.554;2023-02-28T07:09:00;13.25;;;9.52;;
46463;SDS011;32161;48.148;-1.554;2023-02-28T07:11:29;15.02;;;11.05;;
46463;SDS011;32161;48.148;-1.554;2023-02-28T07:13:56;15.88;;;10.95;;
46463;SDS011;32161;48.148;-1.554;2023-02-28T07:16:25;13.63;;;10.07;;
46463;SDS011;32161;48.148;-1.554;2023-02-28T07:18:54;12.85;;;10.25;;
46463;SDS011;32161;48.148;-1.554;2023-02-28T07:21:21;14.30;;;10.27;;
46463;SDS011;32161;48.148;-1.554;2023-02-28T07:23:49;14.85;;;10.52;;
46463;SDS011;32161;48.148;-1.554;2023-02-28T07:26:18;13.98;;;10.60;;
46463;SDS011;32161;48.148;-1.554;2023-02-28T07:28:47;17.95;;;10.88;;
46463;SDS011;32161;48.148;-1.554;2023-02-28T07:31:15;17.38;;;10.38;;
46463;SDS011;32161;48.148;-1.554;2023-02-28T07:33:43;17.05;;;11.40;;
46463;SDS011;32161;48.148;-1.554;2023-02-28T07:36:14;14.40;;;10.85;;
46463;SDS011;32161;48.148;-1.554;2023-02-28T07:38:44;19.35;;;10.30;;
46463;SDS011;32161;48.148;-1.554;2023-02-28T07:41:15;19.23;;;11.77;;
46463;SDS011;32161;48.148;-1.554;2023-02-28T07:43:43;15.02;;;11.38;;
46463;SDS011;32161;48.148;-1.554;2023-02-28T07:46:12;16.00;;;11.73;;
46463;SDS011;32161;48.148;-1.554;2023-02-28T07:48:41;15.88;;;11.85;;
46463;SDS011;32161;48.148;-1.554;2023-02-28T07:51:09;15.48;;;10.98;;
46463;SDS011;32161;48.148;-1.554;2023-02-28T07:53:39;19.60;;;12.55;;
46463;SDS011;32161;48.148;-1.554;2023-02-28T07:56:07;18.27;;;12.63;;
46463;SDS011;32161;48.148;-1.554;2023-02-28T07:58:35;16.50;;;11.32;;
46463;SDS011;32161;48.148;-1.554;2023-02-28T08:01:06;19.70;;;12.15;;
46463;SDS011;32161;48.148;-1.554;2023-02-28T08:03:35;20.67;;;13.13;;
46463;SDS011;32161;48.148;-1.554;2023-02-28T08:06:03;19.45;;;12.38;;
46463;SDS011;32161;48.148;-1.554;2023-02-28T08:08:34;17.67;;;12.27;;
46463;SDS011;32161;48.148;-1.554;2023-02-28T08:11:02;20.05;;;13.77;;
46463;SDS011;32161;48.148;-1.554;2023-02-28T08:13:30;18.38;;;12.10;;
46463;SDS011;32161;48.148;-1.554;2023-02-28T08:15:58;20.60;;;12.15;;
46463;SDS011;32161;48.148;-1.554;2023-02-28T08:18:28;21.07;;;13.43;;
46463;SDS011;32161;48.148;-1.554;2023-02-28T08:20:56;20.48;;;13.50;;
46463;SDS011;32161;48.148;-1.554;2023-02-28T08:23:24;20.85;;;13.23;;
46463;SDS011;32161;48.148;-1.554;2023-02-28T08:25:56;22.80;;;13.00;;
46463;SDS011;32161;48.148;-1.554;2023-02-28T08:28:23;16.10;;;12.45;;
46463;SDS011;32161;48.148;-1.554;2023-02-28T08:30:51;18.98;;;12.77;;
46463;SDS011;32161;48.148;-1.554;2023-02-28T08:33:18;24.70;;;13.35;;
46463;SDS011;32161;48.148;-1.554;2023-02-28T08:35:46;20.23;;;12.75;;
46463;SDS011;32161;48.148;-1.554;2023-02-28T08:38:13;17.70;;;13.55;;
46463;SDS011;32161;48.148;-1.554;2023-02-28T08:40:41;20.90;;;13.43;;
46463;SDS011;32161;48.148;-1.554;2023-02-28T08:43:10;21.63;;;13.10;;
46463;SDS011;32161;48.148;-1.554;2023-02-28T08:45:37;22.75;;;13.02;;
46463;SDS011;32161;48.148;-1.554;2023-02-28T08:48:05;20.95;;;13.57;;
46463;SDS011;32161;48.148;-1.554;2023-02-28T08:50:33;20.40;;;13.48;;
46463;SDS011;32161;48.148;-1.554;2023-02-28T08:53:00;21.42;;;14.27;;
46463;SDS011;32161;48.148;-1.554;2023-02-28T08:55:28;20.40;;;13.32;;
46463;SDS011;32161;48.148;-1.554;2023-02-28T08:57:55;17.38;;;12.63;;
46463;SDS011;32161;48.148;-1.554;2023-02-28T09:00:24;17.67;;;12.25;;
46463;SDS011;32161;48.148;-1.554;2023-02-28T09:02:52;17.27;;;11.95;;
46463;SDS011;32161;48.148;-1.554;2023-02-28T09:05:20;17.77;;;11.93;;
46463;SDS011;32161;48.148;-1.554;2023-02-28T09:07:49;18.45;;;11.80;;
46463;SDS011;32161;48.148;-1.554;2023-02-28T09:10:16;20.60;;;11.65;;
46463;SDS011;32161;48.148;-1.554;2023-02-28T09:12:44;17.83;;;11.68;;
46463;SDS011;32161;48.148;-1.554;2023-02-28T09:15:12;12.00;;;9.82;;
46463;SDS011;32161;48.148;-1.554;2023-02-28T09:17:41;18.58;;;12.82;;
46463;SDS011;32161;48.148;-1.554;2023-02-28T09:20:09;20.48;;;10.65;;
46463;SDS011;32161;48.148;-1.554;2023-02-28T09:22:38;21.00;;;10.65;;
46463;SDS011;32161;48.148;-1.554;2023-02-28T09:25:06;16.27;;;11.40;;
46463;SDS011;32161;48.148;-1.554;2023-02-28T09:27:34;16.90;;;10.82;;
46463;SDS011;32161;48.148;-1.554;2023-02-28T09:30:02;15.32;;;9.27;;
46463;SDS011;32161;48.148;-1.554;2023-02-28T09:32:30;14.38;;;10.82;;
46463;SDS011;32161;48.148;-1.554;2023-02-28T09:34:59;13.60;;;9.45;;
46463;SDS011;32161;48.148;-1.554;2023-02-28T09:37:27;18.98;;;10.05;;
46463;SDS011;32161;48.148;-1.554;2023-02-28T09:39:56;16.98;;;9.80;;
46463;SDS011;32161;48.148;-1.554;2023-02-28T09:42:25;13.18;;;9.32;;
46463;SDS011;32161;48.148;-1.554;2023-02-28T09:44:58;10.43;;;8.75;;
46463;SDS011;32161;48.148;-1.554;2023-02-28T09:47:27;10.48;;;8.10;;
46463;SDS011;32161;48.148;-1.554;2023-02-28T09:50:03;11.13;;;8.18;;
46463;SDS011;32161;48.148;-1.554;2023-02-28T09:52:47;10.98;;;7.68;;
46463;SDS011;32161;48.148;-1.554;2023-02-28T09:55:19;9.75;;;7.32;;
46463;SDS011;32161;48.148;-1.554;2023-02-28T09:57:54;9.18;;;7.50;;
46463;SDS011;32161;48.148;-1.554;2023-02-28T10:00:27;9.90;;;7.28;;
46463;SDS011;32161;48.148;-1.554;2023-02-28T10:03:04;10.57;;;6.70;;
46463;SDS011;32161;48.148;-1.554;2023-02-28T10:05:53;9.07;;;6.88;;
46463;SDS011;32161;48.148;-1.554;2023-02-28T10:08:30;9.15;;;7.63;;
46463;SDS011;32161;48.148;-1.554;2023-02-28T10:11:07;7.28;;;6.47;;
46463;SDS011;32161;48.148;-1.554;2023-02-28T10:13:40;7.05;;;5.90;;
46463;SDS011;32161;48.148;-1.554;2023-02-28T10:16:21;6.53;;;5.28;;
46463;SDS011;32161;48.148;-1.554;2023-02-28T10:18:56;7.93;;;5.95;;
46463;SDS011;32161;48.148;-1.554;2023-02-28T10:21:31;6.57;;;5.28;;
46463;SDS011;32161;48.148;-1.554;2023-02-28T10:24:11;10.65;;;6.00;;
46463;SDS011;32161;48.148;-1.554;2023-02-28T10:26:47;9.60;;;5.40;;
46463;SDS011;32161;48.148;-1.554;2023-02-28T10:29:18;8.98;;;6.13;;
46463;SDS011;32161;48.148;-1.554;2023-02-28T10:31:45;6.15;;;5.30;;
46463;SDS011;32161;48.148;-1.554;2023-02-28T10:34:13;5.60;;;4.07;;
46463;SDS011;32161;48.148;-1.554;2023-02-28T10:36:42;4.80;;;4.40;;
46463;SDS011;32161;48.148;-1.554;2023-02-28T10:42:21;5.93;;;3.65;;
46463;SDS011;32161;48.148;-1.554;2023-02-28T10:45:10;3.50;;;3.20;;
46463;SDS011;32161;48.148;-1.554;2023-02-28T10:47:42;7.50;;;5.00;;
46463;SDS011;32161;48.148;-1.554;2023-02-28T10:50:27;4.38;;;3.95;;
46463;SDS011;32161;48.148;-1.554;2023-02-28T10:56:05;3.58;;;3.20;;
46463;SDS011;32161;48.148;-1.554;2023-02-28T10:58:47;3.38;;;3.08;;
46463;SDS011;32161;48.148;-1.554;2023-02-28T11:01:20;2.90;;;2.70;;
46463;SDS011;32161;48.148;-1.554;2023-02-28T11:03:51;4.03;;;3.50;;
46463;SDS011;32161;48.148;-1.554;2023-02-28T11:06:20;5.03;;;3.67;;
46463;SDS011;32161;48.148;-1.554;2023-02-28T11:11:21;8.30;;;2.97;;
46463;SDS011;32161;48.148;-1.554;2023-02-28T11:13:52;3.20;;;2.95;;
46463;SDS011;32161;48.148;-1.554;2023-02-28T11:16:31;3.83;;;2.67;;
46463;SDS011;32161;48.148;-1.554;2023-02-28T11:19:00;5.47;;;4.15;;
46463;SDS011;32161;48.148;-1.554;2023-02-28T11:21:30;3.55;;;2.90;;
46463;SDS011;32161;48.148;-1.554;2023-02-28T11:24:07;8.80;;;3.20;;
46463;SDS011;32161;48.148;-1.554;2023-02-28T11:26:48;4.28;;;3.10;;
46463;SDS011;32161;48.148;-1.554;2023-02-28T11:29:17;3.72;;;3.20;;
46463;SDS011;32161;48.148;-1.554;2023-02-28T11:34:43;3.35;;;3.05;;
46463;SDS011;32161;48.148;-1.554;2023-02-28T11:37:13;5.05;;;3.20;;
46463;SDS011;32161;48.148;-1.554;2023-02-28T11:39:45;4.32;;;3.70;;
46463;SDS011;32161;48.148;-1.554;2023-02-28T11:42:20;4.25;;;3.17;;
46463;SDS011;32161;48.148;-1.554;2023-02-28T11:45:08;3.65;;;3.38;;
46463;SDS011;32161;48.148;-1.554;2023-02-28T11:47:48;4.60;;;2.83;;
46463;SDS011;32161;48.148;-1.554;2023-02-28T11:53:22;4.63;;;2.92;;
46463;SDS011;32161;48.148;-1.554;2023-02-28T11:56:19;3.92;;;2.90;;
46463;SDS011;32161;48.148;-1.554;2023-02-28T11:58:59;3.72;;;2.97;;
46463;SDS011;32161;48.148;-1.554;2023-02-28T12:01:56;5.55;;;3.42;;
46463;SDS011;32161;48.148;-1.554;2023-02-28T12:04:48;3.42;;;2.90;;
46463;SDS011;32161;48.148;-1.554;2023-02-28T12:07:30;4.88;;;3.00;;
46463;SDS011;32161;48.148;-1.554;2023-02-28T12:10:10;3.22;;;2.92;;
46463;SDS011;32161;48.148;-1.554;2023-02-28T12:12:50;3.13;;;2.80;;
46463;SDS011;32161;48.148;-1.554;2023-02-28T12:15:47;3.30;;;2.85;;
46463;SDS011;32161;48.148;-1.554;2023-02-28T12:18:39;3.60;;;3.30;;
46463;SDS011;32161;48.148;-1.554;2023-02-28T12:21:22;3.67;;;3.30;;
46463;SDS011;32161;48.148;-1.554;2023-02-28T12:24:10;4.40;;;2.97;;
46463;SDS011;32161;48.148;-1.554;2023-02-28T12:27:02;4.10;;;3.20;;
46463;SDS011;32161;48.148;-1.554;2023-02-28T12:29:39;4.53;;;3.13;;
46463;SDS011;32161;48.148;-1.554;2023-02-28T12:32:16;2.88;;;2.63;;
46463;SDS011;32161;48.148;-1.554;2023-02-28T12:34:49;3.05;;;2.67;;
46463;SDS011;32161;48.148;-1.554;2023-02-28T12:37:21;4.50;;;2.67;;
46463;SDS011;32161;48.148;-1.554;2023-02-28T12:39:57;4.60;;;2.83;;
46463;SDS011;32161;48.148;-1.554;2023-02-28T12:42:31;4.15;;;3.80;;
46463;SDS011;32161;48.148;-1.554;2023-02-28T12:45:07;4.15;;;2.88;;
46463;SDS011;32161;48.148;-1.554;2023-02-28T12:47:42;3.50;;;2.88;;
46463;SDS011;32161;48.148;-1.554;2023-02-28T12:50:15;3.17;;;2.90;;
46463;SDS011;32161;48.148;-1.554;2023-02-28T12:52:47;3.35;;;3.08;;
46463;SDS011;32161;48.148;-1.554;2023-02-28T12:55:23;2.88;;;2.10;;
46463;SDS011;32161;48.148;-1.554;2023-02-28T12:58:02;3.35;;;2.30;;
46463;SDS011;32161;48.148;-1.554;2023-02-28T13:00:45;2.97;;;2.78;;
46463;SDS011;32161;48.148;-1.554;2023-02-28T13:03:51;2.70;;;2.50;;
46463;SDS011;32161;48.148;-1.554;2023-02-28T13:06:45;6.50;;;2.70;;
46463;SDS011;32161;48.148;-1.554;2023-02-28T13:09:32;3.22;;;2.92;;
46463;SDS011;32161;48.148;-1.554;2023-02-28T13:12:00;4.30;;;2.95;;
46463;SDS011;32161;48.148;-1.554;2023-02-28T13:14:38;2.80;;;2.60;;
46463;SDS011;32161;48.148;-1.554;2023-02-28T13:17:11;2.60;;;2.47;;
46463;SDS011;32161;48.148;-1.554;2023-02-28T13:19:45;4.05;;;3.10;;
46463;SDS011;32161;48.148;-1.554;2023-02-28T13:22:38;4.95;;;2.55;;
46463;SDS011;32161;48.148;-1.554;2023-02-28T13:38:16;2.65;;;2.47;;
46463;SDS011;32161;48.148;-1.554;2023-02-28T13:44:13;10.43;;;6.15;;
46463;SDS011;32161;48.148;-1.554;2023-02-28T13:50:03;13.30;;;7.90;;
46463;SDS011;32161;48.148;-1.554;2023-02-28T13:52:48;27.52;;;14.68;;
46463;SDS011;32161;48.148;-1.554;2023-02-28T13:55:41;7.22;;;5.63;;
46463;SDS011;32161;48.148;-1.554;2023-02-28T13:58:21;21.70;;;11.00;;
46463;SDS011;32161;48.148;-1.554;2023-02-28T14:01:10;6.93;;;4.28;;
46463;SDS011;32161;48.148;-1.554;2023-02-28T14:04:06;4.45;;;3.25;;
46463;SDS011;32161;48.148;-1.554;2023-02-28T14:07:11;3.00;;;2.80;;
46463;SDS011;32161;48.148;-1.554;2023-02-28T14:09:50;5.60;;;2.80;;
46463;SDS011;32161;48.148;-1.554;2023-02-28T14:15:30;2.22;;;2.05;;
46463;SDS011;32161;48.148;-1.554;2023-02-28T14:18:25;5.43;;;4.28;;
46463;SDS011;32161;48.148;-1.554;2023-02-28T14:21:01;3.67;;;2.83;;
46463;SDS011;32161;48.148;-1.554;2023-02-28T14:23:56;6.13;;;3.55;;
46463;SDS011;32161;48.148;-1.554;2023-02-28T14:27:02;3.60;;;3.03;;
46463;SDS011;32161;48.148;-1.554;2023-02-28T14:33:14;4.90;;;3.47;;
46463;SDS011;32161;48.148;-1.554;2023-02-28T14:36:00;5.20;;;3.22;;
46463;SDS011;32161;48.148;-1.554;2023-02-28T14:38:40;5.05;;;2.50;;
46463;SDS011;32161;48.148;-1.554;2023-02-28T14:41:18;5.45;;;3.55;;
46463;SDS011;32161;48.148;-1.554;2023-02-28T14:43:51;3.10;;;2.90;;
46463;SDS011;32161;48.148;-1.554;2023-02-28T14:46:22;3.85;;;3.17;;
46463;SDS011;32161;48.148;-1.554;2023-02-28T14:48:55;4.70;;;3.15;;
46463;SDS011;32161;48.148;-1.554;2023-02-28T14:51:23;3.00;;;2.78;;
46463;SDS011;32161;48.148;-1.554;2023-02-28T14:53:56;5.97;;;3.58;;
46463;SDS011;32161;48.148;-1.554;2023-02-28T14:56:29;4.50;;;3.53;;
46463;SDS011;32161;48.148;-1.554;2023-02-28T14:59:01;5.05;;;3.90;;
46463;SDS011;32161;48.148;-1.554;2023-02-28T15:01:30;3.70;;;3.25;;
46463;SDS011;32161;48.148;-1.554;2023-02-28T15:04:00;4.20;;;3.85;;
46463;SDS011;32161;48.148;-1.554;2023-02-28T15:06:30;4.45;;;4.10;;
46463;SDS011;32161;48.148;-1.554;2023-02-28T15:09:09;5.75;;;4.50;;
46463;SDS011;32161;48.148;-1.554;2023-02-28T15:11:44;5.35;;;4.30;;
46463;SDS011;32161;48.148;-1.554;2023-02-28T15:14:15;6.05;;;4.10;;
46463;SDS011;32161;48.148;-1.554;2023-02-28T15:19:18;5.63;;;4.70;;
46463;SDS011;32161;48.148;-1.554;2023-02-28T15:21:50;6.50;;;4.43;;
46463;SDS011;32161;48.148;-1.554;2023-02-28T15:24:27;5.53;;;4.68;;
46463;SDS011;32161;48.148;-1.554;2023-02-28T15:27:05;6.95;;;5.05;;
46463;SDS011;32161;48.148;-1.554;2023-02-28T15:29:42;6.55;;;5.28;;
46463;SDS011;32161;48.148;-1.554;2023-02-28T15:32:21;5.88;;;5.35;;
46463;SDS011;32161;48.148;-1.554;2023-02-28T15:34:54;5.95;;;4.75;;
46463;SDS011;32161;48.148;-1.554;2023-02-28T15:37:26;6.38;;;5.00;;
46463;SDS011;32161;48.148;-1.554;2023-02-28T15:40:10;6.40;;;5.80;;
46463;SDS011;32161;48.148;-1.554;2023-02-28T15:42:43;5.75;;;5.15;;
46463;SDS011;32161;48.148;-1.554;2023-02-28T15:45:27;7.35;;;6.32;;
46463;SDS011;32161;48.148;-1.554;2023-02-28T15:48:09;7.90;;;5.95;;
46463;SDS011;32161;48.148;-1.554;2023-02-28T15:50:44;6.78;;;6.10;;